Time;durP1;ratioP1;P1;durP2;ratioP2;P2;SDS_P1;SDS_P2;PMS_P1;PMS_P2;Temp;Humidity;BMP_temperature;BMP_pressure;BME280_temperature;BME280_humidity;BME280_pressure;Samples;Min_cycle;Max_cycle;Signal;HPM_P1;HPM_P2
2022/08/15 00:00:34;;;;;;;12.57;10.60;;;;;;;;;;5073308;28;20180;-65
2022/08/15 00:03:00;;;;;;;14.80;8.90;;;;;;;;;;5082088;28;20497;-65
2022/08/15 00:05:28;;;;;;;10.93;8.32;;;;;;;;;;5078636;28;20189;-65
2022/08/15 00:07:54;;;;;;;13.80;9.00;;;;;;;;;;5072023;28;20048;-65
2022/08/15 00:10:21;;;;;;;12.65;8.13;;;;;;;;;;5076482;28;20604;-65
2022/08/15 00:12:48;;;;;;;13.02;8.27;;;;;;;;;;5074397;28;20275;-65
2022/08/15 00:15:16;;;;;;;13.15;9.27;;;;;;;;;;5077177;28;20136;-65
2022/08/15 00:17:43;;;;;;;12.82;9.07;;;;;;;;;;5079202;28;20098;-65
2022/08/15 00:20:10;;;;;;;11.35;9.02;;;;;;;;;;5080109;28;20031;-65
2022/08/15 00:22:43;;;;;;;13.98;10.02;;;;;;;;;;5074469;28;20044;-65
2022/08/15 00:25:09;;;;;;;13.95;9.45;;;;;;;;;;5080953;28;20432;-66
2022/08/15 00:27:36;;;;;;;15.48;9.93;;;;;;;;;;5082416;28;20131;-65
2022/08/15 00:30:03;;;;;;;13.50;8.75;;;;;;;;;;5084755;28;20039;-65
2022/08/15 00:32:31;;;;;;;18.40;11.60;;;;;;;;;;5075399;28;20048;-65
2022/08/15 00:34:57;;;;;;;13.90;10.70;;;;;;;;;;5085446;28;20050;-65
2022/08/15 00:37:23;;;;;;;14.20;11.77;;;;;;;;;;5078234;28;20040;-65
2022/08/15 00:39:49;;;;;;;12.75;11.45;;;;;;;;;;5076462;28;20064;-67
2022/08/15 00:42:19;;;;;;;13.20;9.60;;;;;;;;;;5077169;28;20478;-65
2022/08/15 00:44:47;;;;;;;15.20;11.38;;;;;;;;;;5072990;28;20481;-65
2022/08/15 00:47:15;;;;;;;13.88;12.07;;;;;;;;;;5081348;28;20040;-65
2022/08/15 00:49:41;;;;;;;14.02;11.73;;;;;;;;;;5084242;28;20054;-65
2022/08/15 00:52:11;;;;;;;12.90;11.07;;;;;;;;;;5073998;28;20217;-65
2022/08/15 00:54:41;;;;;;;14.15;10.35;;;;;;;;;;5078588;28;20342;-65
2022/08/15 00:57:09;;;;;;;13.48;10.73;;;;;;;;;;5100521;27;20047;-65
2022/08/15 00:59:38;;;;;;;13.02;10.43;;;;;;;;;;5085795;28;20050;-65
2022/08/15 01:02:06;;;;;;;12.60;9.10;;;;;;;;;;5079218;28;20044;-65
2022/08/15 01:04:34;;;;;;;15.63;8.57;;;;;;;;;;5075561;28;20131;-65
2022/08/15 01:07:00;;;;;;;11.95;10.60;;;;;;;;;;5072550;28;20044;-65
2022/08/15 01:09:28;;;;;;;14.63;10.95;;;;;;;;;;5074963;28;20102;-65
2022/08/15 01:11:57;;;;;;;14.38;11.48;;;;;;;;;;5072400;28;20059;-65
2022/08/15 01:14:23;;;;;;;12.95;11.35;;;;;;;;;;5079895;28;20071;-65
2022/08/15 01:16:51;;;;;;;13.65;10.60;;;;;;;;;;5081734;28;20052;-65
2022/08/15 01:19:17;;;;;;;13.82;9.88;;;;;;;;;;5078437;28;20750;-65
2022/08/15 01:21:54;;;;;;;11.73;8.75;;;;;;;;;;5075440;28;20043;-65
2022/08/15 01:24:35;;;;;;;10.65;9.35;;;;;;;;;;5070339;28;20040;-65
2022/08/15 01:27:01;;;;;;;11.48;9.23;;;;;;;;;;5086328;28;20047;-65
2022/08/15 01:29:28;;;;;;;16.45;10.82;;;;;;;;;;5077933;28;20164;-65
2022/08/15 01:31:54;;;;;;;14.90;11.82;;;;;;;;;;5082268;28;20062;-65
2022/08/15 01:34:20;;;;;;;12.55;10.50;;;;;;;;;;5064989;28;20052;-65
2022/08/15 01:36:47;;;;;;;16.67;10.70;;;;;;;;;;5083527;28;20040;-66
2022/08/15 01:39:30;;;;;;;12.38;10.40;;;;;;;;;;5074233;28;20044;-65
2022/08/15 01:42:00;;;;;;;13.55;10.57;;;;;;;;;;5068454;28;20044;-65
2022/08/15 01:44:31;;;;;;;20.52;12.85;;;;;;;;;;5087676;28;20177;-65
2022/08/15 01:46:57;;;;;;;13.65;9.32;;;;;;;;;;5077786;28;20055;-65
2022/08/15 01:49:28;;;;;;;14.25;10.93;;;;;;;;;;5077374;28;20047;-65
2022/08/15 01:51:57;;;;;;;14.20;10.73;;;;;;;;;;5077458;28;20143;-65
2022/08/15 01:54:24;;;;;;;13.82;8.88;;;;;;;;;;5070437;28;20059;-65
2022/08/15 01:56:50;;;;;;;16.75;11.82;;;;;;;;;;5068216;28;20523;-65
2022/08/15 01:59:19;;;;;;;13.05;11.30;;;;;;;;;;5067691;28;20044;-65
2022/08/15 02:01:45;;;;;;;18.20;13.60;;;;;;;;;;5066410;28;20118;-65
2022/08/15 02:04:13;;;;;;;16.50;13.38;;;;;;;;;;5078223;28;20487;-65
2022/08/15 02:06:40;;;;;;;12.65;10.55;;;;;;;;;;5083350;28;20032;-65
2022/08/15 02:09:07;;;;;;;16.95;13.30;;;;;;;;;;5083306;28;20386;-65
2022/08/15 02:11:34;;;;;;;16.20;11.70;;;;;;;;;;5082560;28;20150;-65
2022/08/15 02:14:00;;;;;;;16.98;12.95;;;;;;;;;;5072958;28;20514;-65
2022/08/15 02:16:30;;;;;;;16.20;14.32;;;;;;;;;;5080088;28;20466;-65
2022/08/15 02:18:56;;;;;;;11.57;10.38;;;;;;;;;;5078500;28;20044;-65
2022/08/15 02:21:23;;;;;;;13.82;12.30;;;;;;;;;;5072293;28;20112;-65
2022/08/15 02:23:50;;;;;;;17.15;12.55;;;;;;;;;;5076480;28;20081;-65
2022/08/15 02:26:16;;;;;;;16.48;11.18;;;;;;;;;;5075691;28;20442;-65
2022/08/15 02:28:43;;;;;;;14.05;11.98;;;;;;;;;;5090086;28;20040;-65
2022/08/15 02:31:10;;;;;;;13.55;12.10;;;;;;;;;;5082715;28;20059;-65
2022/08/15 02:33:37;;;;;;;17.48;11.10;;;;;;;;;;5084222;28;20045;-65
2022/08/15 02:36:03;;;;;;;17.17;12.80;;;;;;;;;;5083906;28;20058;-65
2022/08/15 02:38:31;;;;;;;17.75;14.65;;;;;;;;;;5085013;28;20124;-65
2022/08/15 02:40:58;;;;;;;17.15;15.45;;;;;;;;;;5087004;27;20085;-65
2022/08/15 02:43:24;;;;;;;16.00;13.07;;;;;;;;;;5081480;28;20055;-65
2022/08/15 02:45:50;;;;;;;23.40;15.27;;;;;;;;;;5084253;28;20059;-65
2022/08/15 02:48:17;;;;;;;18.80;16.90;;;;;;;;;;5085797;28;20039;-65
2022/08/15 02:50:43;;;;;;;18.83;15.38;;;;;;;;;;5087277;28;20044;-65
2022/08/15 02:53:11;;;;;;;15.98;14.02;;;;;;;;;;5079159;28;20343;-66
2022/08/15 02:55:38;;;;;;;20.25;14.68;;;;;;;;;;5081946;28;20039;-65
2022/08/15 02:58:04;;;;;;;19.27;15.15;;;;;;;;;;5091890;28;20040;-65
2022/08/15 03:00:31;;;;;;;19.38;16.50;;;;;;;;;;5085385;28;20051;-65
2022/08/15 03:03:00;;;;;;;23.55;15.73;;;;;;;;;;5083033;28;20043;-65
2022/08/15 03:05:28;;;;;;;19.30;17.08;;;;;;;;;;5072778;28;20068;-65
2022/08/15 03:07:54;;;;;;;20.77;16.65;;;;;;;;;;5090159;27;20037;-65
2022/08/15 03:10:21;;;;;;;17.73;14.02;;;;;;;;;;5072445;28;20089;-65
2022/08/15 03:12:50;;;;;;;19.23;15.38;;;;;;;;;;5076613;28;20048;-65
2022/08/15 03:15:17;;;;;;;21.65;17.52;;;;;;;;;;5081931;28;20044;-65
2022/08/15 03:17:44;;;;;;;20.67;17.85;;;;;;;;;;5088459;28;20090;-65
2022/08/15 03:20:11;;;;;;;23.45;18.17;;;;;;;;;;5082859;28;20174;-65
2022/08/15 03:22:43;;;;;;;25.52;18.75;;;;;;;;;;5085608;28;20043;-66
2022/08/15 03:25:09;;;;;;;23.52;19.10;;;;;;;;;;5073650;28;20075;-65
2022/08/15 03:27:36;;;;;;;21.13;18.83;;;;;;;;;;5070400;28;20036;-65
2022/08/15 03:30:03;;;;;;;22.48;18.55;;;;;;;;;;5073221;28;20036;-65
2022/08/15 03:32:29;;;;;;;22.02;19.10;;;;;;;;;;5071379;28;20442;-65
2022/08/15 03:34:55;;;;;;;24.02;19.85;;;;;;;;;;5074087;28;20047;-65
2022/08/15 03:37:22;;;;;;;26.15;20.58;;;;;;;;;;5083659;28;20071;-65
2022/08/15 03:39:48;;;;;;;24.05;19.50;;;;;;;;;;5083450;28;20059;-65
2022/08/15 03:42:14;;;;;;;22.98;19.13;;;;;;;;;;5070215;28;20096;-65
2022/08/15 03:44:40;;;;;;;23.67;20.38;;;;;;;;;;5071903;28;20050;-65
2022/08/15 03:47:07;;;;;;;26.60;20.48;;;;;;;;;;5071242;28;20135;-65
2022/08/15 03:49:33;;;;;;;22.23;18.77;;;;;;;;;;5072338;28;20067;-66
2022/08/15 03:52:04;;;;;;;26.17;20.02;;;;;;;;;;5083131;28;20404;-65
2022/08/15 03:54:30;;;;;;;23.75;18.20;;;;;;;;;;5073964;28;20056;-65
2022/08/15 03:56:57;;;;;;;23.27;18.05;;;;;;;;;;5085532;28;20048;-65
2022/08/15 03:59:23;;;;;;;24.60;17.92;;;;;;;;;;5074260;28;20512;-65
2022/08/15 04:01:49;;;;;;;19.90;17.20;;;;;;;;;;5076494;28;20160;-65
2022/08/15 04:04:17;;;;;;;24.15;18.45;;;;;;;;;;5076047;28;20051;-65
2022/08/15 04:06:43;;;;;;;23.65;19.20;;;;;;;;;;5073071;28;20072;-65
2022/08/15 04:09:10;;;;;;;22.48;19.92;;;;;;;;;;5074280;28;20052;-65
2022/08/15 04:11:37;;;;;;;21.02;17.02;;;;;;;;;;5083694;28;20044;-65
2022/08/15 04:14:06;;;;;;;21.83;16.92;;;;;;;;;;5082683;28;20454;-66
2022/08/15 04:16:32;;;;;;;24.20;18.00;;;;;;;;;;5084638;28;20142;-66
2022/08/15 04:18:59;;;;;;;23.33;18.45;;;;;;;;;;5079326;28;20089;-65
2022/08/15 04:21:25;;;;;;;24.80;18.77;;;;;;;;;;5078576;28;20079;-66
2022/08/15 04:23:51;;;;;;;21.45;18.60;;;;;;;;;;5075985;28;20089;-65
2022/08/15 04:26:17;;;;;;;24.05;18.23;;;;;;;;;;5079336;28;20048;-65
2022/08/15 04:28:44;;;;;;;20.35;18.15;;;;;;;;;;5085765;28;21298;-65
2022/08/15 04:31:11;;;;;;;20.60;18.17;;;;;;;;;;5077853;28;20071;-65
2022/08/15 04:33:38;;;;;;;21.13;18.88;;;;;;;;;;5078333;28;20043;-65
2022/08/15 04:36:10;;;;;;;25.38;19.95;;;;;;;;;;5085016;28;20039;-65
2022/08/15 04:38:37;;;;;;;26.23;18.35;;;;;;;;;;5078817;28;20127;-65
2022/08/15 04:41:04;;;;;;;24.23;20.02;;;;;;;;;;5077719;28;20051;-65
2022/08/15 04:43:31;;;;;;;22.85;18.80;;;;;;;;;;5070526;28;20411;-65
2022/08/15 04:45:58;;;;;;;23.15;19.90;;;;;;;;;;5080929;28;20486;-65
2022/08/15 04:48:25;;;;;;;24.48;19.13;;;;;;;;;;5074144;28;20128;-65
2022/08/15 04:50:53;;;;;;;22.38;18.17;;;;;;;;;;5081377;28;20082;-65
2022/08/15 04:53:21;;;;;;;22.17;18.15;;;;;;;;;;5078312;28;20043;-65
2022/08/15 04:55:49;;;;;;;34.00;21.48;;;;;;;;;;5080438;28;20087;-65
2022/08/15 04:58:15;;;;;;;24.67;19.58;;;;;;;;;;5077151;28;20052;-65
2022/08/15 05:00:54;;;;;;;22.10;17.17;;;;;;;;;;5067112;28;20169;-65
2022/08/15 05:03:21;;;;;;;22.77;18.85;;;;;;;;;;5072671;28;20114;-65
2022/08/15 05:05:49;;;;;;;21.23;18.95;;;;;;;;;;5072770;28;20044;-65
2022/08/15 05:08:15;;;;;;;20.83;17.63;;;;;;;;;;5072121;28;20355;-65
2022/08/15 05:10:42;;;;;;;20.88;18.05;;;;;;;;;;5085457;28;20036;-65
2022/08/15 05:13:09;;;;;;;23.55;19.45;;;;;;;;;;5085207;28;20580;-65
2022/08/15 05:15:35;;;;;;;23.98;17.33;;;;;;;;;;5076440;28;20487;-65
2022/08/15 05:18:02;;;;;;;20.55;18.15;;;;;;;;;;5068946;28;20090;-65
2022/08/15 05:20:28;;;;;;;20.05;17.10;;;;;;;;;;5077166;28;20040;-65
2022/08/15 05:22:55;;;;;;;22.15;18.60;;;;;;;;;;5080080;28;20215;-65
2022/08/15 05:25:22;;;;;;;24.75;18.33;;;;;;;;;;5078350;28;21602;-65
2022/08/15 05:27:49;;;;;;;19.63;17.35;;;;;;;;;;5076311;28;20577;-65
2022/08/15 05:30:15;;;;;;;21.35;19.15;;;;;;;;;;5076472;28;20339;-65
2022/08/15 05:32:41;;;;;;;25.20;19.33;;;;;;;;;;5078079;28;20044;-65
2022/08/15 05:35:08;;;;;;;20.98;18.35;;;;;;;;;;5078905;28;20097;-65
2022/08/15 05:37:34;;;;;;;19.52;17.45;;;;;;;;;;5073109;28;20123;-64
2022/08/15 05:40:00;;;;;;;21.35;19.05;;;;;;;;;;5075351;28;20051;-65
2022/08/15 05:42:39;;;;;;;23.10;19.35;;;;;;;;;;5087258;28;20036;-65
2022/08/15 05:45:12;;;;;;;24.63;19.38;;;;;;;;;;5084402;28;20438;-66
2022/08/15 05:47:48;;;;;;;27.40;19.50;;;;;;;;;;5079616;28;20467;-66
2022/08/15 05:50:19;;;;;;;23.73;19.55;;;;;;;;;;5080230;28;20054;-66
2022/08/15 05:52:47;;;;;;;24.02;20.13;;;;;;;;;;5088083;28;20036;-66
2022/08/15 05:55:32;;;;;;;24.40;18.38;;;;;;;;;;5081867;28;20079;-66
2022/08/15 05:58:07;;;;;;;20.27;17.45;;;;;;;;;;5088114;28;20513;-66
2022/08/15 06:00:33;;;;;;;23.05;18.42;;;;;;;;;;5073886;28;20056;-66
2022/08/15 06:03:09;;;;;;;21.85;17.90;;;;;;;;;;5089594;28;20335;-66
2022/08/15 06:05:40;;;;;;;24.10;17.98;;;;;;;;;;5084590;28;20103;-66
2022/08/15 06:08:15;;;;;;;21.13;18.70;;;;;;;;;;5089374;28;20044;-66
2022/08/15 06:10:54;;;;;;;20.05;16.75;;;;;;;;;;5088445;28;20051;-65
2022/08/15 06:13:24;;;;;;;21.67;19.40;;;;;;;;;;5086286;28;20701;-65
2022/08/15 06:15:55;;;;;;;22.05;18.65;;;;;;;;;;5089301;28;20147;-66
2022/08/15 06:18:22;;;;;;;29.35;19.50;;;;;;;;;;5091730;28;20478;-65
2022/08/15 06:21:07;;;;;;;23.95;18.83;;;;;;;;;;5088862;28;20043;-65
2022/08/15 06:23:41;;;;;;;24.60;17.60;;;;;;;;;;5078980;28;20076;-65
2022/08/15 06:26:24;;;;;;;22.38;19.00;;;;;;;;;;5089229;28;20055;-65
2022/08/15 06:28:58;;;;;;;19.45;17.20;;;;;;;;;;5080949;28;20292;-65
2022/08/15 06:31:30;;;;;;;23.85;17.90;;;;;;;;;;5086003;28;20048;-65
2022/08/15 06:34:02;;;;;;;21.80;18.48;;;;;;;;;;5080727;28;20072;-65
2022/08/15 06:36:31;;;;;;;23.75;18.88;;;;;;;;;;5080560;28;20101;-65
2022/08/15 06:39:04;;;;;;;21.98;17.75;;;;;;;;;;5078287;28;20082;-66
2022/08/15 06:41:34;;;;;;;20.42;18.05;;;;;;;;;;5082677;28;20093;-66
2022/08/15 06:44:01;;;;;;;20.77;17.48;;;;;;;;;;5086626;28;20040;-66
2022/08/15 06:46:32;;;;;;;20.08;18.08;;;;;;;;;;5089493;28;20044;-65
2022/08/15 06:49:03;;;;;;;22.55;16.85;;;;;;;;;;5089247;28;20059;-66
2022/08/15 06:51:30;;;;;;;22.02;17.23;;;;;;;;;;5087324;28;20048;-66
2022/08/15 06:53:58;;;;;;;21.48;18.63;;;;;;;;;;5084574;28;20071;-65
2022/08/15 06:56:25;;;;;;;23.98;17.00;;;;;;;;;;5089321;28;20179;-65
2022/08/15 06:58:55;;;;;;;18.55;16.65;;;;;;;;;;5090764;28;20526;-66
2022/08/15 07:01:33;;;;;;;19.30;16.52;;;;;;;;;;5091283;28;20134;-65
2022/08/15 07:04:10;;;;;;;22.55;16.45;;;;;;;;;;5089326;28;20390;-66
2022/08/15 07:06:49;;;;;;;18.08;15.65;;;;;;;;;;5092041;28;20046;-66
2022/08/15 07:09:23;;;;;;;18.38;15.70;;;;;;;;;;5091413;28;20127;-66
2022/08/15 07:11:55;;;;;;;17.52;15.82;;;;;;;;;;5085697;28;20036;-66
2022/08/15 07:14:22;;;;;;;17.50;15.38;;;;;;;;;;5083710;28;20052;-65
2022/08/15 07:16:50;;;;;;;17.38;15.40;;;;;;;;;;5086178;28;20048;-65
2022/08/15 07:19:16;;;;;;;18.27;13.85;;;;;;;;;;5085674;28;20461;-66
2022/08/15 07:21:43;;;;;;;20.52;14.35;;;;;;;;;;5084722;28;20381;-66
2022/08/15 07:24:11;;;;;;;15.98;12.95;;;;;;;;;;5086843;28;20037;-66
2022/08/15 07:26:46;;;;;;;14.45;12.07;;;;;;;;;;5087120;28;20039;-66
2022/08/15 07:29:25;;;;;;;14.32;12.10;;;;;;;;;;5093972;28;20047;-66
2022/08/15 07:31:59;;;;;;;16.40;12.40;;;;;;;;;;5095405;28;20145;-66
2022/08/15 07:34:25;;;;;;;;;;;;;;;;;;5093931;28;20440;-69
2022/08/15 07:36:58;;;;;;;16.25;12.52;;;;;;;;;;5088526;28;20441;-66
2022/08/15 07:39:25;;;;;;;15.35;11.70;;;;;;;;;;5092212;28;20414;-66
2022/08/15 07:41:51;;;;;;;12.23;10.90;;;;;;;;;;5088689;28;20115;-66
2022/08/15 07:44:19;;;;;;;17.08;11.70;;;;;;;;;;5087106;28;20442;-65
2022/08/15 07:46:55;;;;;;;14.90;11.75;;;;;;;;;;5096533;28;20052;-66
2022/08/15 07:49:25;;;;;;;18.25;12.00;;;;;;;;;;5089126;28;20503;-66
2022/08/15 07:52:02;;;;;;;13.77;11.57;;;;;;;;;;5092845;28;20350;-66
2022/08/15 07:54:30;;;;;;;13.73;11.57;;;;;;;;;;5089442;28;20447;-66
2022/08/15 07:56:58;;;;;;;12.93;11.60;;;;;;;;;;5093656;28;20043;-66
2022/08/15 07:59:27;;;;;;;13.32;11.93;;;;;;;;;;5091874;28;20047;-66
2022/08/15 08:01:54;;;;;;;13.75;11.82;;;;;;;;;;5087777;28;20046;-66
2022/08/15 08:04:24;;;;;;;15.98;12.45;;;;;;;;;;5086779;28;20043;-66
2022/08/15 08:06:55;;;;;;;16.63;12.88;;;;;;;;;;5097110;28;20036;-66
2022/08/15 08:09:36;;;;;;;15.50;11.40;;;;;;;;;;5093612;28;20453;-66
2022/08/15 08:12:21;;;;;;;15.25;11.90;;;;;;;;;;5091888;28;20119;-66
2022/08/15 08:15:02;;;;;;;14.48;10.68;;;;;;;;;;5095081;28;20047;-66
2022/08/15 08:17:32;;;;;;;16.08;11.57;;;;;;;;;;5087243;28;20052;-66
2022/08/15 08:20:02;;;;;;;11.50;10.30;;;;;;;;;;5085126;28;20765;-66
2022/08/15 08:22:35;;;;;;;15.18;10.48;;;;;;;;;;5078060;28;20371;-65
2022/08/15 08:25:07;;;;;;;14.70;12.90;;;;;;;;;;5079754;28;20106;-66
2022/08/15 08:27:49;;;;;;;14.00;11.80;;;;;;;;;;5083983;28;20046;-66
2022/08/15 08:30:19;;;;;;;16.50;11.02;;;;;;;;;;5093789;28;20048;-66
2022/08/15 08:32:52;;;;;;;13.45;10.35;;;;;;;;;;5091951;28;20043;-66
2022/08/15 08:35:20;;;;;;;13.30;11.25;;;;;;;;;;5093606;28;20130;-66
2022/08/15 08:37:54;;;;;;;14.43;11.38;;;;;;;;;;5086516;28;20048;-66
2022/08/15 08:43:38;;;;;;;17.75;12.65;;;;;;;;;;5091448;28;20083;-66
2022/08/15 08:46:15;;;;;;;14.65;13.07;;;;;;;;;;5088435;28;20137;-66
2022/08/15 08:48:47;;;;;;;16.08;12.68;;;;;;;;;;5095983;28;20044;-66
2022/08/15 08:51:26;;;;;;;14.70;11.88;;;;;;;;;;5112718;27;20047;-66
2022/08/15 08:53:58;;;;;;;18.70;12.45;;;;;;;;;;5083785;28;20186;-66
2022/08/15 08:56:26;;;;;;;14.75;10.48;;;;;;;;;;5054276;28;20045;-75
2022/08/15 08:59:05;;;;;;;14.10;11.05;;;;;;;;;;5082333;28;20052;-66
2022/08/15 09:01:34;;;;;;;16.02;11.48;;;;;;;;;;5085611;28;20043;-67
2022/08/15 09:04:03;;;;;;;12.52;11.20;;;;;;;;;;5085669;28;20048;-66
2022/08/15 09:06:31;;;;;;;12.80;10.68;;;;;;;;;;5087572;28;20446;-66
2022/08/15 09:09:04;;;;;;;12.25;10.93;;;;;;;;;;5088410;28;20051;-66
2022/08/15 09:11:33;;;;;;;13.27;11.17;;;;;;;;;;5087339;28;20051;-66
2022/08/15 09:14:05;;;;;;;13.73;11.52;;;;;;;;;;5090060;28;20054;-66
2022/08/15 09:16:35;;;;;;;13.85;10.13;;;;;;;;;;5090073;28;20064;-66
2022/08/15 09:19:04;;;;;;;13.35;11.15;;;;;;;;;;5082017;28;20130;-66
2022/08/15 09:21:31;;;;;;;12.48;10.07;;;;;;;;;;5083151;28;20199;-66
2022/08/15 09:23:58;;;;;;;14.50;10.38;;;;;;;;;;5089562;28;20040;-66
2022/08/15 09:26:25;;;;;;;14.52;11.13;;;;;;;;;;5085725;28;20130;-66
2022/08/15 09:29:02;;;;;;;12.10;10.48;;;;;;;;;;5081302;28;20048;-66
2022/08/15 09:31:31;;;;;;;14.45;11.05;;;;;;;;;;5079029;28;20048;-67
2022/08/15 09:34:11;;;;;;;13.23;10.85;;;;;;;;;;5083342;28;20050;-66
2022/08/15 09:36:50;;;;;;;12.85;11.45;;;;;;;;;;5080791;28;20075;-66
2022/08/15 09:39:27;;;;;;;12.27;10.00;;;;;;;;;;5086830;28;20089;-66
2022/08/15 09:42:01;;;;;;;14.45;11.82;;;;;;;;;;5083886;28;20085;-67
2022/08/15 09:44:29;;;;;;;15.65;12.93;;;;;;;;;;5081854;28;20136;-66
2022/08/15 09:47:08;;;;;;;15.98;14.35;;;;;;;;;;5082365;28;20044;-66
2022/08/15 09:49:51;;;;;;;15.93;13.95;;;;;;;;;;5087588;28;20121;-66
2022/08/15 09:52:38;;;;;;;13.88;12.40;;;;;;;;;;5088025;28;20426;-67
2022/08/15 09:55:16;;;;;;;14.38;10.93;;;;;;;;;;5097406;28;20040;-67
2022/08/15 09:57:47;;;;;;;14.10;11.70;;;;;;;;;;5089395;28;20040;-66
2022/08/15 10:00:19;;;;;;;17.58;11.18;;;;;;;;;;5095851;28;20103;-67
2022/08/15 10:02:47;;;;;;;16.33;11.30;;;;;;;;;;5087338;28;20067;-67
2022/08/15 10:05:13;;;;;;;12.75;10.82;;;;;;;;;;5091185;28;20354;-67
2022/08/15 10:07:46;;;;;;;13.93;12.00;;;;;;;;;;5084381;28;20047;-67
2022/08/15 10:10:15;;;;;;;13.90;11.80;;;;;;;;;;5083462;28;20131;-66
2022/08/15 10:13:01;;;;;;;11.85;10.65;;;;;;;;;;5084811;28;20511;-67
2022/08/15 10:15:31;;;;;;;12.40;10.70;;;;;;;;;;5083737;28;20131;-67
2022/08/15 10:17:58;;;;;;;13.43;11.27;;;;;;;;;;5084155;28;21673;-67
2022/08/15 10:20:27;;;;;;;11.77;10.05;;;;;;;;;;5084275;28;20114;-67
2022/08/15 10:22:57;;;;;;;12.73;11.43;;;;;;;;;;5093645;28;20077;-67
2022/08/15 10:25:23;;;;;;;13.27;9.85;;;;;;;;;;5093333;28;20508;-67
2022/08/15 10:28:05;;;;;;;13.40;9.95;;;;;;;;;;5076555;28;20040;-67
2022/08/15 10:30:35;;;;;;;13.67;10.23;;;;;;;;;;5089750;28;20045;-66
2022/08/15 10:33:01;;;;;;;16.00;9.35;;;;;;;;;;5085930;28;20810;-66
2022/08/15 10:35:39;;;;;;;9.68;8.20;;;;;;;;;;5086856;28;20135;-66
2022/08/15 10:38:07;;;;;;;10.95;7.95;;;;;;;;;;5085303;28;20060;-67
2022/08/15 10:40:36;;;;;;;8.65;7.25;;;;;;;;;;5078801;28;20060;-66
2022/08/15 10:43:08;;;;;;;8.55;6.72;;;;;;;;;;5081671;28;20173;-67
2022/08/15 10:45:48;;;;;;;10.80;8.95;;;;;;;;;;5085627;28;20036;-66
2022/08/15 10:48:26;;;;;;;11.88;8.13;;;;;;;;;;5082842;28;20154;-66
2022/08/15 10:51:15;;;;;;;9.23;7.53;;;;;;;;;;5100279;27;20048;-66
2022/08/15 10:53:47;;;;;;;9.65;8.70;;;;;;;;;;5081627;28;20044;-66
2022/08/15 10:56:16;;;;;;;11.00;9.20;;;;;;;;;;5083771;28;20048;-67
2022/08/15 10:58:44;;;;;;;11.43;8.90;;;;;;;;;;5082122;28;20079;-66
2022/08/15 11:01:13;;;;;;;12.13;8.55;;;;;;;;;;5089465;28;20101;-67
2022/08/15 11:03:42;;;;;;;10.93;8.68;;;;;;;;;;5090897;28;20134;-66
2022/08/15 11:06:13;;;;;;;9.77;8.77;;;;;;;;;;5091184;28;20031;-66
2022/08/15 11:08:46;;;;;;;10.05;8.80;;;;;;;;;;5086737;28;20105;-66
2022/08/15 11:11:12;;;;;;;15.93;8.38;;;;;;;;;;5066538;28;20064;-67
2022/08/15 11:13:41;;;;;;;12.30;9.77;;;;;;;;;;5083331;28;20052;-66
2022/08/15 11:16:11;;;;;;;17.23;11.13;;;;;;;;;;5092342;28;20053;-66
2022/08/15 11:18:40;;;;;;;12.50;10.18;;;;;;;;;;5085919;28;20044;-66
2022/08/15 11:21:17;;;;;;;15.35;10.57;;;;;;;;;;5084108;28;20092;-66
2022/08/15 11:23:43;;;;;;;10.40;9.15;;;;;;;;;;5084309;28;20097;-66
2022/08/15 11:26:12;;;;;;;11.40;10.20;;;;;;;;;;5090673;28;20058;-67
2022/08/15 11:28:41;;;;;;;12.60;10.75;;;;;;;;;;5089042;28;20048;-66
2022/08/15 11:31:12;;;;;;;14.40;11.43;;;;;;;;;;5089222;28;21341;-67
2022/08/15 11:33:45;;;;;;;15.18;11.15;;;;;;;;;;5090333;28;20118;-66
2022/08/15 11:36:12;;;;;;;16.10;13.27;;;;;;;;;;5088724;28;20065;-66
2022/08/15 11:38:42;;;;;;;14.05;10.95;;;;;;;;;;5086244;28;20443;-66
2022/08/15 11:41:08;;;;;;;14.07;11.35;;;;;;;;;;5089809;28;20126;-67
2022/08/15 11:43:35;;;;;;;21.98;12.85;;;;;;;;;;5093657;28;20056;-66
2022/08/15 11:46:02;;;;;;;16.10;14.40;;;;;;;;;;5090821;28;20485;-67
2022/08/15 11:48:30;;;;;;;20.50;14.55;;;;;;;;;;5093209;28;20047;-67
2022/08/15 11:50:58;;;;;;;16.40;14.70;;;;;;;;;;5090248;28;20040;-67
2022/08/15 11:53:27;;;;;;;22.63;14.45;;;;;;;;;;5092438;28;20047;-67
2022/08/15 11:55:53;;;;;;;15.98;13.93;;;;;;;;;;5090134;28;20045;-67
2022/08/15 11:58:22;;;;;;;22.30;16.85;;;;;;;;;;5094872;28;20048;-68
2022/08/15 12:00:50;;;;;;;21.10;15.70;;;;;;;;;;5089953;28;20047;-66
2022/08/15 12:03:17;;;;;;;18.88;15.32;;;;;;;;;;5084951;28;20093;-67
2022/08/15 12:05:44;;;;;;;21.45;14.75;;;;;;;;;;5080875;28;20124;-66
2022/08/15 12:08:10;;;;;;;14.90;12.52;;;;;;;;;;5084284;28;20052;-67
2022/08/15 12:10:39;;;;;;;17.55;12.65;;;;;;;;;;5081051;28;20407;-66
2022/08/15 12:13:06;;;;;;;14.63;9.43;;;;;;;;;;5084277;28;20410;-66
2022/08/15 12:15:33;;;;;;;15.75;10.80;;;;;;;;;;5077697;28;20486;-67
2022/08/15 12:18:08;;;;;;;11.80;9.90;;;;;;;;;;5088200;28;20500;-67
2022/08/15 12:20:38;;;;;;;12.40;9.35;;;;;;;;;;5095378;28;20631;-66
2022/08/15 12:23:23;;;;;;;13.95;8.93;;;;;;;;;;5097865;28;20048;-67
2022/08/15 12:25:51;;;;;;;12.98;8.23;;;;;;;;;;5091826;28;20459;-67
2022/08/15 12:28:18;;;;;;;10.95;8.00;;;;;;;;;;5085951;28;20127;-67
2022/08/15 12:30:46;;;;;;;10.48;7.72;;;;;;;;;;5083043;28;20051;-66
2022/08/15 12:33:13;;;;;;;22.30;9.38;;;;;;;;;;5086703;28;20244;-67
2022/08/15 12:35:39;;;;;;;16.13;8.90;;;;;;;;;;5087350;28;20040;-66
2022/08/15 12:38:06;;;;;;;9.70;6.45;;;;;;;;;;5095183;28;20071;-67
2022/08/15 12:40:32;;;;;;;15.25;7.35;;;;;;;;;;5093434;28;20387;-67
2022/08/15 12:42:58;;;;;;;10.00;6.07;;;;;;;;;;5088605;28;20111;-66
2022/08/15 12:45:24;;;;;;;10.43;5.53;;;;;;;;;;5082147;28;20094;-66
2022/08/15 12:47:51;;;;;;;9.82;4.88;;;;;;;;;;5083323;28;20421;-65
2022/08/15 12:50:17;;;;;;;10.00;5.05;;;;;;;;;;5094827;28;20458;-65
2022/08/15 12:52:44;;;;;;;9.77;4.68;;;;;;;;;;5093373;28;20088;-65
2022/08/15 12:55:10;;;;;;;7.57;4.53;;;;;;;;;;5093054;28;20471;-65
2022/08/15 12:57:37;;;;;;;8.85;4.50;;;;;;;;;;5088482;28;20082;-66
2022/08/15 13:00:07;;;;;;;7.35;4.50;;;;;;;;;;5089478;28;20426;-66
2022/08/15 13:02:36;;;;;;;6.97;4.43;;;;;;;;;;5092940;28;20051;-64
2022/08/15 13:05:05;;;;;;;7.82;4.45;;;;;;;;;;5087790;28;20051;-65
2022/08/15 13:07:32;;;;;;;8.88;3.75;;;;;;;;;;5087749;28;20138;-65
2022/08/15 13:09:59;;;;;;;6.90;2.95;;;;;;;;;;5082108;28;20469;-65
2022/08/15 13:12:25;;;;;;;7.25;3.15;;;;;;;;;;5104613;27;20048;-66
2022/08/15 13:14:51;;;;;;;5.15;3.13;;;;;;;;;;5089765;28;20139;-65
2022/08/15 13:17:17;;;;;;;5.40;2.80;;;;;;;;;;5081790;28;20056;-65
2022/08/15 13:25:16;;;;;;;6.72;3.22;;;;;;;;;;5090974;28;20044;-65
2022/08/15 13:27:44;;;;;;;5.22;3.20;;;;;;;;;;5082105;28;20139;-65
2022/08/15 13:30:11;;;;;;;7.22;3.25;;;;;;;;;;5090034;28;20088;-66
2022/08/15 13:32:38;;;;;;;5.53;3.40;;;;;;;;;;5089048;28;20079;-66
2022/08/15 13:35:05;;;;;;;7.00;3.40;;;;;;;;;;5088644;28;20044;-66
2022/08/15 13:37:32;;;;;;;6.22;3.03;;;;;;;;;;5082448;28;20048;-66
2022/08/15 13:39:58;;;;;;;13.32;2.95;;;;;;;;;;5081326;28;20207;-66
2022/08/15 13:42:25;;;;;;;10.75;3.97;;;;;;;;;;5077883;28;20036;-66
2022/08/15 13:44:53;;;;;;;9.25;3.28;;;;;;;;;;5083721;28;20128;-65
2022/08/15 13:47:21;;;;;;;6.78;3.03;;;;;;;;;;5077225;28;20055;-65
2022/08/15 13:49:47;;;;;;;10.68;3.63;;;;;;;;;;5096959;28;20059;-66
2022/08/15 13:52:14;;;;;;;8.38;3.55;;;;;;;;;;5086230;28;20059;-66
2022/08/15 13:54:41;;;;;;;6.78;3.70;;;;;;;;;;5098909;27;20409;-65
2022/08/15 13:57:07;;;;;;;7.45;3.70;;;;;;;;;;5083517;28;20040;-65
2022/08/15 13:59:34;;;;;;;5.40;3.97;;;;;;;;;;5083712;28;20072;-65
2022/08/15 14:02:01;;;;;;;24.60;5.32;;;;;;;;;;5082090;28;20427;-66
2022/08/15 14:04:30;;;;;;;8.43;4.53;;;;;;;;;;5091632;28;20063;-66
2022/08/15 14:06:57;;;;;;;9.85;4.25;;;;;;;;;;5096443;28;20068;-65
2022/08/15 14:09:24;;;;;;;7.47;3.63;;;;;;;;;;5090914;28;20051;-65
2022/08/15 14:11:50;;;;;;;12.55;4.20;;;;;;;;;;5093887;28;20051;-66
2022/08/15 14:14:17;;;;;;;9.68;3.92;;;;;;;;;;5092974;28;20074;-65
2022/08/15 14:16:45;;;;;;;7.55;4.38;;;;;;;;;;5091843;28;20835;-65
2022/08/15 14:19:12;;;;;;;6.82;3.55;;;;;;;;;;5082727;28;20525;-66
2022/08/15 14:21:39;;;;;;;7.72;3.13;;;;;;;;;;5082604;28;20097;-65
2022/08/15 14:24:06;;;;;;;9.00;3.47;;;;;;;;;;5098094;28;20056;-66
2022/08/15 14:26:35;;;;;;;6.32;3.10;;;;;;;;;;5093620;28;20040;-65
2022/08/15 14:29:01;;;;;;;8.52;3.40;;;;;;;;;;5088424;28;20048;-66
2022/08/15 14:31:28;;;;;;;8.25;3.20;;;;;;;;;;5084452;28;20425;-65
2022/08/15 14:33:55;;;;;;;7.80;3.65;;;;;;;;;;5087926;28;20035;-66
2022/08/15 14:36:21;;;;;;;8.60;3.17;;;;;;;;;;5074635;28;20119;-66
2022/08/15 14:38:47;;;;;;;7.40;4.20;;;;;;;;;;5079449;28;20307;-66
2022/08/15 14:41:15;;;;;;;9.20;3.45;;;;;;;;;;5075941;28;20901;-66
2022/08/15 14:43:42;;;;;;;6.80;3.80;;;;;;;;;;5077875;28;20044;-66